Time;durP1;ratioP1;P1;durP2;ratioP2;P2;SDS_P1;SDS_P2;PMS_P1;PMS_P2;Temp;Humidity;BMP_temperature;BMP_pressure;BME280_temperature;BME280_humidity;BME280_pressure;Samples;Min_cycle;Max_cycle;Signal;HPM_P1;HPM_P2
2021/04/25 00:01:29;;;;;;;14.13;9.08;;;;;;;9.01;69.46;100766.45;2891377;82;21126;-63
2021/04/25 00:05:33;;;;;;;15.38;8.90;;;;;;;9.05;69.10;100765.77;2891410;82;21229;-64
2021/04/25 00:09:37;;;;;;;17.77;11.88;;;;;;;8.93;68.53;100758.14;2890519;82;21114;-63
2021/04/25 00:13:43;;;;;;;13.22;9.78;;;;;;;8.94;68.90;100756.72;2891437;81;21086;-63
2021/04/25 00:17:45;;;;;;;13.22;8.83;;;;;;;8.93;67.57;100751.50;2891246;82;21102;-62
2021/04/25 00:21:48;;;;;;;17.20;9.50;;;;;;;8.91;67.22;100747.65;2891080;82;21598;-62
2021/04/25 00:25:51;;;;;;;14.13;9.28;;;;;;;8.83;67.97;100738.87;2891270;82;21109;-62
2021/04/25 00:29:53;;;;;;;14.07;10.15;;;;;;;8.74;67.09;100739.97;2891159;82;21126;-61
2021/04/25 00:33:56;;;;;;;15.35;10.93;;;;;;;8.73;67.42;100740.92;2891125;81;21122;-63
2021/04/25 00:37:59;;;;;;;18.32;12.25;;;;;;;8.74;67.73;100743.95;2861776;82;21128;-62
2021/04/25 00:42:02;;;;;;;20.35;11.10;;;;;;;8.77;68.55;100745.93;2891155;82;21098;-64
2021/04/25 00:46:06;;;;;;;13.98;9.18;;;;;;;8.85;69.61;100748.07;2861758;81;21092;-61
2021/04/25 00:50:12;;;;;;;17.32;10.58;;;;;;;8.97;70.34;100747.22;2871255;82;21216;-62
2021/04/25 00:54:15;;;;;;;15.72;11.10;;;;;;;8.96;69.41;100749.50;2904877;82;21186;-61
2021/04/25 00:58:19;;;;;;;17.45;9.55;;;;;;;9.06;70.23;100749.73;2905394;82;21102;-62
2021/04/25 01:02:22;;;;;;;13.28;7.65;;;;;;;9.05;69.38;100748.52;2903878;81;21122;-62
2021/04/25 01:06:26;;;;;;;14.23;11.15;;;;;;;9.09;68.68;100740.72;2903912;82;21134;-62
2021/04/25 01:10:29;;;;;;;11.80;6.35;;;;;;;9.17;69.62;100748.16;2904133;81;21105;-63
2021/04/25 01:14:32;;;;;;;10.28;7.40;;;;;;;9.14;68.98;100745.23;2904223;81;21110;-63
2021/04/25 01:18:35;;;;;;;15.63;8.85;;;;;;;9.19;69.89;100747.08;2904304;80;21165;-62
2021/04/25 01:22:38;;;;;;;19.37;9.50;;;;;;;9.24;69.47;100747.63;2903981;82;21113;-63
2021/04/25 01:26:43;;;;;;;12.00;8.53;;;;;;;9.24;69.88;100743.66;2903938;81;21145;-63
2021/04/25 01:30:47;;;;;;;10.55;6.10;;;;;;;9.28;69.65;100748.25;2903996;82;21169;-64
2021/04/25 01:34:51;;;;;;;8.87;6.80;;;;;;;9.19;68.55;100740.94;2904233;81;21157;-63
2021/04/25 01:38:54;;;;;;;12.15;6.83;;;;;;;9.04;67.99;100741.48;2903915;82;21082;-63
2021/04/25 01:42:59;;;;;;;12.20;7.30;;;;;;;8.93;68.25;100739.56;2904079;82;21141;-63
2021/04/25 01:47:02;;;;;;;8.65;6.70;;;;;;;8.96;69.22;100748.17;2901947;81;21176;-63
2021/04/25 01:51:06;;;;;;;10.68;6.72;;;;;;;9.02;68.55;100746.92;2891216;82;21591;-62
2021/04/25 01:55:11;;;;;;;19.45;9.20;;;;;;;9.03;67.24;100741.12;2891146;82;21114;-62
2021/04/25 01:59:14;;;;;;;12.98;9.05;;;;;;;8.99;66.92;100740.00;2892065;80;21619;-63
2021/04/25 02:03:17;;;;;;;14.00;8.28;;;;;;;8.95;66.41;100728.40;2892480;82;21110;-63
2021/04/25 02:07:20;;;;;;;15.50;8.58;;;;;;;8.95;66.45;100723.92;2893827;82;21117;-62
2021/04/25 02:11:23;;;;;;;11.90;7.53;;;;;;;8.98;66.38;100730.34;2892696;81;21181;-63
2021/04/25 02:15:27;;;;;;;15.15;9.53;;;;;;;8.98;67.23;100736.14;2891335;82;21106;-64
2021/04/25 02:19:30;;;;;;;13.32;8.90;;;;;;;8.88;67.19;100730.61;2890936;82;21113;-62
2021/04/25 02:23:33;;;;;;;19.42;9.40;;;;;;;8.65;67.08;100732.16;2891151;82;21122;-63
2021/04/25 02:27:37;;;;;;;11.50;8.03;;;;;;;8.58;68.05;100729.05;2891384;82;21098;-63
2021/04/25 02:31:40;;;;;;;11.97;8.38;;;;;;;8.60;67.89;100728.47;2891384;82;21145;-63
2021/04/25 02:35:46;;;;;;;15.85;8.88;;;;;;;8.58;67.69;100711.81;2891637;81;21138;-63
2021/04/25 02:39:50;;;;;;;13.10;10.05;;;;;;;8.57;67.19;100710.12;2891304;82;21154;-62
2021/04/25 02:43:52;;;;;;;13.43;10.38;;;;;;;8.57;66.96;100708.80;2891329;82;21158;-63
2021/04/25 02:48:00;;;;;;;14.05;9.05;;;;;;;8.62;66.58;100708.50;2890334;81;21102;-63
2021/04/25 02:52:04;;;;;;;16.52;10.98;;;;;;;8.63;65.91;100712.84;2887056;82;21126;-63
2021/04/25 02:56:07;;;;;;;17.30;10.40;;;;;;;8.66;67.57;100716.61;2886931;82;21146;-64
2021/04/25 03:00:15;;;;;;;18.12;9.00;;;;;;;8.64;67.97;100708.74;2858232;83;21112;-63
2021/04/25 03:04:18;;;;;;;14.75;9.13;;;;;;;8.73;68.48;100715.73;2809756;84;21120;-61
2021/04/25 03:08:21;;;;;;;16.10;9.53;;;;;;;8.80;68.34;100718.33;2810743;84;21186;-63
2021/04/25 03:12:24;;;;;;;12.35;9.50;;;;;;;8.84;68.66;100727.77;2848474;83;21107;-63
2021/04/25 03:16:29;;;;;;;10.60;7.65;;;;;;;8.48;67.39;100738.55;2859300;83;21113;-61
2021/04/25 03:20:33;;;;;;;14.55;8.10;;;;;;;8.24;69.46;100738.72;2810096;84;21119;-61
2021/04/25 03:24:37;;;;;;;11.93;7.60;;;;;;;8.19;69.54;100730.69;2810438;84;21532;-62
2021/04/25 03:28:39;;;;;;;13.75;8.68;;;;;;;8.09;69.19;100745.00;2809918;84;21148;-62
2021/04/25 03:32:44;;;;;;;15.10;9.30;;;;;;;7.93;68.55;100742.49;2810218;84;21159;-62
2021/04/25 03:36:47;;;;;;;16.30;9.45;;;;;;;7.85;69.59;100742.48;2810559;84;21171;-62
2021/04/25 03:40:50;;;;;;;12.80;9.23;;;;;;;7.96;69.87;100740.97;2810024;84;21558;-62
2021/04/25 03:44:53;;;;;;;9.95;7.58;;;;;;;8.00;69.01;100736.71;2809839;84;21140;-63
2021/04/25 03:48:56;;;;;;;14.07;7.40;;;;;;;7.99;67.65;100736.80;2809734;83;21577;-62
2021/04/25 03:53:00;;;;;;;10.35;8.20;;;;;;;7.94;66.51;100740.22;2810156;84;21116;-62
2021/04/25 03:57:05;;;;;;;15.83;8.58;;;;;;;7.99;68.06;100742.95;2809838;84;21136;-63
2021/04/25 04:01:08;;;;;;;11.73;7.75;;;;;;;8.13;68.81;100751.34;2810260;83;21140;-62
2021/04/25 04:05:13;;;;;;;11.53;6.47;;;;;;;8.24;68.86;100743.16;2809877;84;21164;-61
2021/04/25 04:09:17;;;;;;;16.67;8.38;;;;;;;8.25;67.86;100751.02;2810106;84;21187;-62
2021/04/25 04:13:21;;;;;;;8.65;6.28;;;;;;;8.19;68.19;100750.56;2809861;84;21124;-62
2021/04/25 04:17:24;;;;;;;15.43;7.62;;;;;;;8.14;68.33;100753.04;2809630;84;21184;-63
2021/04/25 04:21:29;;;;;;;10.20;7.35;;;;;;;8.13;67.96;100750.47;2810449;84;21175;-62
2021/04/25 04:25:32;;;;;;;12.58;7.55;;;;;;;8.04;68.65;100764.33;2810089;83;21140;-63
2021/04/25 04:29:35;;;;;;;15.50;8.28;;;;;;;7.94;70.39;100769.36;2811437;84;21163;-62
2021/04/25 04:33:38;;;;;;;12.37;7.22;;;;;;;7.85;69.85;100764.16;2809966;84;21120;-62
2021/04/25 04:37:41;;;;;;;15.83;9.05;;;;;;;7.76;68.07;100768.70;2809190;84;21227;-63
2021/04/25 04:41:44;;;;;;;18.75;7.65;;;;;;;7.74;68.06;100772.78;2809170;84;21116;-63
2021/04/25 04:45:48;;;;;;;14.45;7.12;;;;;;;7.77;66.84;100773.91;2809217;84;21136;-62
2021/04/25 04:49:51;;;;;;;11.03;7.12;;;;;;;7.77;64.52;100773.91;2809132;84;21188;-63
2021/04/25 04:53:54;;;;;;;8.95;5.15;;;;;;;7.77;62.75;100777.05;2809355;84;21140;-63
2021/04/25 04:57:57;;;;;;;7.60;4.75;;;;;;;7.72;61.96;100775.52;2809089;84;21128;-64
2021/04/25 05:02:00;;;;;;;12.15;5.85;;;;;;;7.70;61.59;100782.70;2809508;84;21124;-65
2021/04/25 05:06:04;;;;;;;10.15;5.97;;;;;;;7.70;62.04;100777.41;2809289;83;21141;-62
2021/04/25 05:10:08;;;;;;;7.03;4.58;;;;;;;7.72;62.13;100779.98;2809151;83;21657;-63
2021/04/25 05:14:13;;;;;;;6.50;3.83;;;;;;;7.75;61.51;100787.73;2809141;84;21148;-62
2021/04/25 05:18:15;;;;;;;5.25;4.47;;;;;;;7.78;59.83;100788.86;2809010;84;21141;-62
2021/04/25 05:22:18;;;;;;;5.53;3.25;;;;;;;7.83;61.12;100786.77;2809037;84;21606;-63
2021/04/25 05:26:21;;;;;;;4.95;3.02;;;;;;;7.96;60.50;100786.88;2809036;83;21133;-62
2021/04/25 05:30:24;;;;;;;4.80;3.20;;;;;;;8.04;59.14;100790.82;2809647;83;21144;-64
2021/04/25 05:34:28;;;;;;;5.92;4.10;;;;;;;8.09;59.21;100790.91;2809720;83;21120;-62
2021/04/25 05:38:30;;;;;;;5.03;3.20;;;;;;;8.12;58.98;100790.72;2809112;84;21534;-62
2021/04/25 05:42:34;;;;;;;6.78;3.83;;;;;;;8.18;58.32;100788.16;2810687;83;21144;-62
2021/04/25 05:46:39;;;;;;;9.85;5.33;;;;;;;8.26;60.24;100786.34;2810860;84;21124;-62
2021/04/25 05:50:43;;;;;;;7.25;3.87;;;;;;;8.28;57.73;100793.23;2799118;83;21160;-63
2021/04/25 05:54:46;;;;;;;5.75;3.83;;;;;;;8.27;57.50;100792.02;2814653;84;21125;-63
2021/04/25 05:58:50;;;;;;;5.72;3.10;;;;;;;8.26;57.43;100794.30;2900232;81;22298;-63
2021/04/25 06:02:53;;;;;;;9.13;4.40;;;;;;;8.19;56.80;100796.94;2899443;81;21110;-63
2021/04/25 06:06:56;;;;;;;8.43;3.42;;;;;;;8.18;56.39;100795.24;2898794;82;21089;-64
2021/04/25 06:11:00;;;;;;;3.72;2.17;;;;;;;8.21;56.34;100793.71;2900674;81;21089;-63
2021/04/25 06:15:06;;;;;;;2.00;1.15;;;;;;;8.24;57.41;100789.53;2898998;82;21086;-62
2021/04/25 06:19:09;;;;;;;4.87;2.22;;;;;;;8.26;55.89;100795.12;2898235;82;21078;-63
2021/04/25 06:23:14;;;;;;;4.40;2.52;;;;;;;8.37;56.78;100798.91;2897826;82;21563;-64
2021/04/25 06:27:16;;;;;;;2.27;1.72;;;;;;;8.47;54.41;100793.86;2897520;81;22234;-65
2021/04/25 06:31:20;;;;;;;3.87;1.92;;;;;;;8.49;52.99;100792.78;2898103;82;21098;-62
2021/04/25 06:35:23;;;;;;;1.87;1.20;;;;;;;8.48;53.20;100792.91;2897934;81;21138;-64
2021/04/25 06:39:27;;;;;;;5.33;2.47;;;;;;;8.54;51.32;100789.87;2897545;82;21130;-64
2021/04/25 06:43:32;;;;;;;3.17;2.47;;;;;;;8.66;52.50;100798.36;2898143;82;21117;-61
2021/04/25 06:47:35;;;;;;;3.25;2.60;;;;;;;8.76;53.70;100795.09;2897925;82;21516;-62
2021/04/25 06:51:38;;;;;;;3.08;2.75;;;;;;;8.89;52.63;100797.31;2891685;82;21565;-63
2021/04/25 06:55:41;;;;;;;5.22;3.15;;;;;;;8.90;51.67;100796.36;2891544;80;21149;-64
2021/04/25 06:59:44;;;;;;;4.70;2.47;;;;;;;9.04;53.94;100803.39;2891629;81;21117;-62
2021/04/25 07:03:52;;;;;;;3.25;2.15;;;;;;;9.18;51.59;100802.94;2891748;80;21166;-62
2021/04/25 07:07:58;;;;;;;3.27;2.62;;;;;;;9.21;50.90;100799.58;2892629;81;21122;-63
2021/04/25 07:12:01;;;;;;;3.37;1.80;;;;;;;9.29;52.37;100803.91;2863732;83;21539;-63
2021/04/25 07:16:05;;;;;;;2.90;2.22;;;;;;;9.43;50.83;100806.08;2891050;81;21157;-63
2021/04/25 07:20:13;;;;;;;3.80;1.45;;;;;;;9.61;50.99;100804.43;2813421;84;21140;-64
2021/04/25 07:24:16;;;;;;;3.05;1.67;;;;;;;10.04;49.78;100804.55;2813928;83;21128;-65
2021/04/25 07:28:20;;;;;;;1.67;1.00;;;;;;;10.37;49.10;100801.25;2892684;82;21146;-66
2021/04/25 07:32:23;;;;;;;1.37;0.80;;;;;;;10.85;47.91;100797.77;2842201;83;21089;-61
2021/04/25 07:36:27;;;;;;;2.15;1.57;;;;;;;11.22;46.92;100791.95;2816100;84;21169;-66
2021/04/25 07:40:30;;;;;;;3.75;1.52;;;;;;;11.41;46.50;100794.07;2815647;84;21172;-66
2021/04/25 07:44:34;;;;;;;1.27;0.85;;;;;;;11.31;44.88;100794.41;2816240;83;21133;-67
2021/04/25 07:48:37;;;;;;;1.90;1.27;;;;;;;11.12;44.58;100794.48;2815048;84;21137;-65
2021/04/25 07:52:43;;;;;;;1.57;1.00;;;;;;;11.29;45.96;100799.36;2801983;85;21109;-67
2021/04/25 07:56:46;;;;;;;1.37;0.77;;;;;;;11.40;44.87;100793.70;2802074;85;21181;-67
2021/04/25 08:00:48;;;;;;;1.47;1.05;;;;;;;11.70;45.70;100790.93;2801839;83;21125;-66
2021/04/25 08:04:51;;;;;;;1.90;0.80;;;;;;;12.10;46.12;100795.78;2862968;81;21119;-65
2021/04/25 08:08:55;;;;;;;3.45;1.27;;;;;;;12.18;42.19;100784.98;2898723;81;21664;-66
2021/04/25 08:12:58;;;;;;;0.88;0.55;;;;;;;12.26;44.38;100777.22;2857142;82;21125;-67
2021/04/25 08:17:01;;;;;;;1.77;1.20;;;;;;;12.13;41.79;100773.38;2849927;83;21116;-68
2021/04/25 08:21:05;;;;;;;2.25;0.80;;;;;;;11.96;40.39;100778.67;2849731;83;21140;-68
2021/04/25 08:25:09;;;;;;;5.33;1.20;;;;;;;11.93;43.36;100770.92;2849297;83;21637;-68
2021/04/25 08:29:18;;;;;;;2.55;1.27;;;;;;;12.00;42.43;100788.15;2848482;83;21589;-68
2021/04/25 08:33:21;;;;;;;1.90;1.25;;;;;;;11.74;41.51;100783.55;2849604;83;21232;-68
2021/04/25 08:37:25;;;;;;;2.90;1.35;;;;;;;11.42;43.06;100779.28;2850379;83;21160;-66
2021/04/25 08:41:29;;;;;;;2.70;1.17;;;;;;;11.64;43.34;100776.77;2850561;82;21159;-70
2021/04/25 08:45:33;;;;;;;2.25;1.20;;;;;;;12.02;44.84;100777.38;2849654;82;21574;-68
2021/04/25 08:49:36;;;;;;;0.85;0.85;;;;;;;12.31;44.16;100772.34;2849617;83;21140;-70
2021/04/25 08:53:44;;;;;;;2.85;1.50;;;;;;;12.39;43.37;100768.59;2849628;83;21178;-68
2021/04/25 08:57:48;;;;;;;2.25;0.98;;;;;;;12.34;42.21;100780.09;2849362;82;21132;-69
2021/04/25 09:01:51;;;;;;;1.40;1.30;;;;;;;12.40;42.32;100771.61;2849484;82;21144;-70
2021/04/25 09:05:58;;;;;;;1.60;1.00;;;;;;;12.37;42.41;100779.84;2850045;83;21120;-69
2021/04/25 09:10:05;;;;;;;2.25;1.35;;;;;;;12.55;43.64;100777.97;2822796;83;21673;-69
2021/04/25 09:14:25;;;;;;;0.85;0.70;;;;;;;12.36;40.21;100782.65;2849279;83;21645;-70
2021/04/25 09:18:35;;;;;;;1.02;0.88;;;;;;;12.18;40.17;100772.97;2849536;83;21120;-70
2021/04/25 09:22:45;;;;;;;0.80;0.72;;;;;;;12.24;44.00;100783.17;2848812;83;21120;-70
2021/04/25 09:27:47;;;;;;;3.35;1.15;;;;;;;12.25;41.68;100771.02;2849668;83;21129;-70
2021/04/25 09:31:54;;;;;;;1.35;1.25;;;;;;;12.21;44.10;100772.25;2851048;83;21124;-70
2021/04/25 09:35:58;;;;;;;1.95;1.30;;;;;;;11.96;43.01;100769.34;2850879;83;21092;-69
2021/04/25 09:40:33;;;;;;;3.02;1.00;;;;;;;11.82;41.75;100764.66;2851474;83;21158;-70
2021/04/25 09:44:45;;;;;;;2.22;1.22;;;;;;;11.80;42.63;100767.92;2831637;84;21172;-66
2021/04/25 09:53:21;;;;;;;3.83;1.37;;;;;;;11.57;44.09;100774.56;2833073;84;21141;-69
2021/04/25 09:58:02;;;;;;;1.30;1.00;;;;;;;11.74;42.75;100779.55;2833198;84;21078;-69
2021/04/25 10:02:09;;;;;;;3.00;1.02;;;;;;;11.75;43.23;100771.92;2832931;84;21172;-69
2021/04/25 10:06:13;;;;;;;3.72;1.17;;;;;;;11.63;41.77;100772.41;2809125;84;21168;-68
2021/04/25 10:10:51;;;;;;;1.87;1.47;;;;;;;11.53;43.92;100774.95;2831619;84;21117;-63
2021/04/25 10:14:54;;;;;;;2.98;0.78;;;;;;;11.74;43.00;100764.39;2861330;83;21136;-68
2021/04/25 10:19:30;;;;;;;1.52;1.27;;;;;;;11.91;41.48;100764.88;2863888;81;21089;-68
2021/04/25 10:23:34;;;;;;;1.98;1.37;;;;;;;12.08;41.75;100753.73;2866511;82;21171;-66
2021/04/25 10:27:42;;;;;;;1.98;1.42;;;;;;;12.28;44.92;100755.27;2863693;82;21175;-64
2021/04/25 10:31:46;;;;;;;1.67;0.88;;;;;;;12.33;40.67;100758.39;2860129;82;21582;-63
2021/04/25 10:35:56;;;;;;;2.33;1.10;;;;;;;12.33;42.60;100764.23;2860207;83;21172;-63
2021/04/25 10:40:08;;;;;;;4.42;0.80;;;;;;;12.28;40.86;100753.93;2861405;82;21185;-65
2021/04/25 10:44:11;;;;;;;3.62;1.02;;;;;;;12.20;41.22;100767.06;2853909;81;21152;-61
2021/04/25 10:48:26;;;;;;;3.27;1.60;;;;;;;12.42;42.04;100758.13;2872599;82;21530;-64
2021/04/25 10:52:32;;;;;;;0.75;0.62;;;;;;;12.38;40.38;100752.22;2860150;81;21144;-63
2021/04/25 10:56:35;;;;;;;2.10;1.37;;;;;;;12.20;41.53;100762.55;2860078;81;21187;-63
2021/04/25 11:00:40;;;;;;;3.05;1.02;;;;;;;12.05;40.19;100763.32;2859935;83;21128;-62
2021/04/25 11:04:59;;;;;;;1.17;0.70;;;;;;;11.86;41.71;100766.56;2859807;83;21152;-65
2021/04/25 11:09:05;;;;;;;3.83;1.10;;;;;;;11.91;41.33;100767.54;2859835;83;21112;-64
2021/04/25 11:13:39;;;;;;;3.08;1.70;;;;;;;12.34;41.71;100764.09;2827565;83;21129;-63
2021/04/25 11:17:45;;;;;;;9.70;1.30;;;;;;;12.74;41.96;100751.95;2823522;84;21156;-62
2021/04/25 11:21:57;;;;;;;2.35;1.50;;;;;;;12.89;43.17;100764.48;2823718;84;21124;-63
2021/04/25 11:26:07;;;;;;;3.08;1.50;;;;;;;12.68;43.51;100766.65;2822324;84;21163;-62
2021/04/25 11:30:38;;;;;;;4.47;2.35;;;;;;;12.38;42.50;100776.70;2817985;84;21121;-61
2021/04/25 11:35:04;;;;;;;6.62;4.67;;;;;;;12.33;44.33;100773.06;2823907;84;21124;-62
2021/04/25 11:39:08;;;;;;;1.52;1.20;;;;;;;12.26;42.72;100768.72;2824179;84;21998;-63
2021/04/25 11:43:11;;;;;;;2.90;1.90;;;;;;;12.21;42.71;100774.92;2824102;84;21146;-64
2021/04/25 11:47:17;;;;;;;5.33;1.02;;;;;;;12.41;45.49;100777.30;2823692;84;21124;-64
2021/04/25 11:51:24;;;;;;;2.02;1.17;;;;;;;12.26;41.79;100775.89;2838313;83;21579;-62
2021/04/25 11:55:28;;;;;;;2.83;1.42;;;;;;;12.21;43.01;100778.92;2905088;80;21539;-63
2021/04/25 11:59:31;;;;;;;2.83;1.32;;;;;;;12.14;43.57;100771.06;2906113;81;21125;-62
2021/04/25 12:03:40;;;;;;;1.65;0.90;;;;;;;12.14;43.24;100771.89;2905956;81;21093;-62
2021/04/25 12:07:46;;;;;;;4.25;2.87;;;;;;;12.28;42.91;100772.13;2903914;81;21097;-63
2021/04/25 12:11:49;;;;;;;;;;;;;;;12.33;42.31;100771.73;2908962;81;21122;-61
2021/04/25 12:16:02;;;;;;;9.60;5.37;;;;;;;12.33;43.18;100770.40;2906179;81;20392;-63
2021/04/25 12:20:08;;;;;;;3.95;2.65;;;;;;;12.33;42.67;100772.23;2899202;80;21129;-60
2021/04/25 12:24:11;;;;;;;5.87;2.30;;;;;;;12.22;44.45;100771.78;2900221;81;21105;-60
2021/04/25 12:28:15;;;;;;;3.70;2.25;;;;;;;11.84;42.01;100777.37;2890547;82;21116;-61
2021/04/25 12:32:20;;;;;;;1.30;1.20;;;;;;;11.54;45.78;100780.14;2888868;82;21125;-64
2021/04/25 12:36:26;;;;;;;2.83;0.75;;;;;;;11.28;46.05;100785.69;2856581;82;21144;-63
2021/04/25 12:40:33;;;;;;;1.95;1.27;;;;;;;11.17;46.42;100780.82;2856571;83;21581;-64
2021/04/25 12:44:38;;;;;;;3.08;1.42;;;;;;;11.42;46.83;100781.95;2856505;83;21135;-63
2021/04/25 12:48:47;;;;;;;2.85;1.27;;;;;;;11.37;46.82;100784.59;2860691;80;21149;-64
2021/04/25 12:52:52;;;;;;;4.70;1.20;;;;;;;11.05;47.38;100792.76;2893052;82;21141;-63
2021/04/25 12:56:56;;;;;;;2.05;1.42;;;;;;;10.92;48.15;100794.67;2890967;82;21563;-63
2021/04/25 13:01:21;;;;;;;2.33;1.42;;;;;;;11.08;47.71;100784.53;2891118;80;21130;-62
2021/04/25 13:05:24;;;;;;;2.62;1.00;;;;;;;11.18;48.81;100784.68;2879812;80;21512;-64
2021/04/25 13:09:27;;;;;;;1.50;1.02;;;;;;;11.35;48.44;100783.87;2878748;82;21173;-63
2021/04/25 13:13:30;;;;;;;2.65;1.87;;;;;;;11.45;49.33;100786.20;2845064;81;21128;-65
2021/04/25 13:17:41;;;;;;;4.33;1.62;;;;;;;11.38;47.49;100782.30;2840519;81;21595;-62
2021/04/25 13:21:47;;;;;;;1.50;0.95;;;;;;;11.27;46.05;100779.99;2891307;82;21102;-62
2021/04/25 13:25:59;;;;;;;2.98;0.80;;;;;;;11.27;46.61;100776.47;2810733;83;21574;-65
2021/04/25 13:30:02;;;;;;;1.62;1.35;;;;;;;11.32;46.66;100772.99;2845457;83;21112;-65
2021/04/25 13:34:05;;;;;;;1.80;1.22;;;;;;;11.43;48.17;100774.81;2804830;84;21169;-64
2021/04/25 13:38:10;;;;;;;1.50;1.25;;;;;;;11.55;47.10;100757.85;2812946;84;21186;-65
2021/04/25 13:42:13;;;;;;;0.70;0.70;;;;;;;11.66;48.22;100770.83;2863595;83;21217;-64
2021/04/25 13:46:16;;;;;;;6.08;1.45;;;;;;;11.48;45.87;100768.64;2863819;83;21166;-64
2021/04/25 13:50:19;;;;;;;1.17;1.00;;;;;;;11.37;45.46;100772.14;2863584;83;21163;-65
2021/04/25 13:54:22;;;;;;;2.85;1.15;;;;;;;11.18;47.40;100770.53;2871170;82;21107;-64
2021/04/25 13:58:25;;;;;;;1.30;0.70;;;;;;;11.02;45.40;100774.36;2871803;81;21175;-66
2021/04/25 14:02:28;;;;;;;2.65;1.12;;;;;;;10.88;46.30;100790.05;2869048;82;21147;-67
2021/04/25 14:06:36;;;;;;;3.77;1.40;;;;;;;10.78;46.04;100777.05;2881129;82;21124;-66
2021/04/25 14:10:39;;;;;;;4.60;2.02;;;;;;;10.68;47.42;100774.23;2894633;80;21121;-66
2021/04/25 14:14:42;;;;;;;18.90;7.62;;;;;;;10.65;47.83;100772.67;2910405;81;21129;-66
2021/04/25 14:18:45;;;;;;;1.75;1.50;;;;;;;10.66;47.90;100769.05;2911182;81;21607;-66
2021/04/25 14:22:50;;;;;;;3.85;1.92;;;;;;;10.69;47.95;100780.79;2911682;81;21133;-66
2021/04/25 14:26:53;;;;;;;2.52;1.75;;;;;;;10.72;46.14;100781.05;2911538;80;21097;-66
2021/04/25 14:30:55;;;;;;;3.50;1.17;;;;;;;10.82;48.57;100783.88;2911775;81;21113;-66
2021/04/25 14:34:58;;;;;;;2.22;1.12;;;;;;;11.18;47.46;100785.18;2911815;81;21089;-66
2021/04/25 14:39:03;;;;;;;2.55;1.32;;;;;;;11.40;49.21;100775.06;2911595;81;21149;-66
2021/04/25 14:43:06;;;;;;;3.77;1.72;;;;;;;11.57;48.38;100766.57;2911519;81;21125;-66
2021/04/25 14:47:09;;;;;;;4.03;3.33;;;;;;;11.79;48.35;100754.71;2911653;81;21101;-66
2021/04/25 14:51:13;;;;;;;2.77;2.00;;;;;;;11.94;48.39;100751.30;2911713;81;21247;-67
2021/04/25 14:55:16;;;;;;;2.02;1.52;;;;;;;12.13;45.17;100749.37;2914792;81;21105;-66
2021/04/25 14:59:19;;;;;;;1.25;1.00;;;;;;;12.13;45.94;100750.20;2914812;81;21157;-66
2021/04/25 15:03:22;;;;;;;1.35;0.70;;;;;;;11.95;44.99;100752.98;2914641;81;21768;-66
2021/04/25 15:07:25;;;;;;;1.72;1.07;;;;;;;11.82;44.36;100741.13;2914839;81;21113;-66
2021/04/25 15:11:28;;;;;;;1.50;1.17;;;;;;;11.86;45.08;100748.77;2914987;81;21148;-66
2021/04/25 15:15:32;;;;;;;2.22;1.27;;;;;;;11.97;45.68;100743.05;2914928;81;21125;-68
2021/04/25 15:19:37;;;;;;;2.27;1.95;;;;;;;12.04;45.35;100740.30;2914954;81;21096;-67
2021/04/25 15:23:40;;;;;;;1.62;1.40;;;;;;;12.08;46.47;100751.06;2914859;81;21117;-67
2021/04/25 15:27:43;;;;;;;1.90;0.75;;;;;;;12.16;45.57;100750.92;2914933;80;21126;-66
2021/04/25 15:31:46;;;;;;;1.17;1.00;;;;;;;12.05;44.39;100751.32;2914788;81;21161;-66
2021/04/25 15:35:50;;;;;;;1.98;1.12;;;;;;;12.06;44.64;100746.34;2914580;81;21133;-67
2021/04/25 15:39:54;;;;;;;2.05;0.90;;;;;;;12.13;45.92;100753.38;2914524;81;21575;-66
2021/04/25 15:43:57;;;;;;;1.57;1.10;;;;;;;12.13;45.86;100739.53;2914856;81;21132;-67
2021/04/25 15:47:59;;;;;;;1.57;1.00;;;;;;;12.07;44.93;100741.38;2914743;80;21113;-66
2021/04/25 15:52:04;;;;;;;2.05;1.55;;;;;;;11.77;44.68;100734.83;2914438;81;21515;-67
2021/04/25 15:56:07;;;;;;;2.58;1.42;;;;;;;11.46;46.42;100735.95;2914519;81;21121;-66
2021/04/25 16:00:13;;;;;;;1.85;0.90;;;;;;;11.25;45.99;100739.33;2914709;81;21101;-67
2021/04/25 16:04:18;;;;;;;0.93;0.88;;;;;;;11.06;46.61;100741.71;2914579;81;21121;-66
2021/04/25 16:08:21;;;;;;;3.45;1.32;;;;;;;10.98;47.33;100747.12;2914641;81;21551;-66
2021/04/25 16:12:25;;;;;;;3.15;1.72;;;;;;;10.96;48.41;100745.06;2914754;81;21129;-67
2021/04/25 16:16:28;;;;;;;1.15;0.95;;;;;;;11.00;48.04;100743.02;2914699;81;21579;-66
2021/04/25 16:20:32;;;;;;;4.47;3.37;;;;;;;11.10;46.90;100753.81;2914521;81;21650;-66
2021/04/25 16:24:35;;;;;;;7.92;4.10;;;;;;;11.12;48.34;100745.22;2914608;81;21109;-67
2021/04/25 16:28:38;;;;;;;8.00;4.28;;;;;;;10.99;47.79;100747.98;2914598;81;21117;-66
2021/04/25 16:32:42;;;;;;;2.45;1.40;;;;;;;11.02;47.48;100746.91;2914626;81;21125;-66
2021/04/25 16:36:45;;;;;;;1.62;0.82;;;;;;;11.08;46.86;100754.42;2914630;81;21129;-66
2021/04/25 16:40:48;;;;;;;1.70;1.20;;;;;;;10.97;46.68;100749.41;2914757;81;21077;-66
2021/04/25 16:44:51;;;;;;;2.33;1.20;;;;;;;10.79;47.00;100737.50;2914568;81;21137;-66
2021/04/25 16:48:54;;;;;;;7.87;1.65;;;;;;;10.60;48.47;100752.69;2914627;81;21136;-68
2021/04/25 16:52:57;;;;;;;1.52;0.88;;;;;;;10.44;49.55;100757.81;2945315;80;21136;-63
2021/04/25 16:57:03;;;;;;;1.85;0.80;;;;;;;10.38;48.26;100748.44;2905966;82;21151;-66
2021/04/25 17:01:06;;;;;;;1.50;0.70;;;;;;;10.37;48.61;100752.56;2932097;81;21100;-65
2021/04/25 17:05:11;;;;;;;2.60;1.62;;;;;;;10.40;49.86;100749.67;2905677;82;21083;-67
2021/04/25 17:09:14;;;;;;;0.95;0.80;;;;;;;10.42;50.11;100755.28;2867165;82;21592;-65
2021/04/25 17:13:17;;;;;;;2.83;1.32;;;;;;;10.47;50.37;100752.76;2814740;83;21525;-67
2021/04/25 17:17:20;;;;;;;3.80;1.70;;;;;;;10.48;51.33;100749.97;2814786;83;21163;-65
2021/04/25 17:21:23;;;;;;;2.62;1.50;;;;;;;10.45;51.05;100753.36;2814751;84;21119;-66
2021/04/25 17:25:26;;;;;;;4.62;2.17;;;;;;;10.38;49.12;100749.77;2814667;84;21619;-66
2021/04/25 17:29:29;;;;;;;3.10;1.85;;;;;;;10.26;49.08;100745.37;2814808;84;21550;-66
2021/04/25 17:33:32;;;;;;;2.55;1.65;;;;;;;10.13;49.48;100748.91;2814835;83;21202;-66
2021/04/25 17:37:37;;;;;;;2.17;1.25;;;;;;;10.11;49.42;100752.63;2842359;82;21177;-66
2021/04/25 17:41:40;;;;;;;2.65;1.52;;;;;;;10.07;50.36;100760.00;2888545;82;21125;-67
2021/04/25 17:45:44;;;;;;;1.25;0.85;;;;;;;10.02;50.37;100755.47;2888509;81;21090;-65
2021/04/25 17:49:47;;;;;;;3.40;2.37;;;;;;;9.91;51.65;100759.40;2888698;82;21169;-65
2021/04/25 17:53:54;;;;;;;3.90;2.00;;;;;;;9.75;51.88;100768.45;2894365;81;21627;-65
2021/04/25 17:57:56;;;;;;;3.65;1.80;;;;;;;9.60;52.26;100765.55;2901797;82;21165;-65
2021/04/25 18:01:59;;;;;;;2.80;1.52;;;;;;;9.36;53.27;100767.64;2901522;82;21129;-64
2021/04/25 18:06:02;;;;;;;8.03;2.92;;;;;;;9.11;53.01;100764.85;2901059;82;21192;-65
2021/04/25 18:10:07;;;;;;;2.10;1.40;;;;;;;8.98;52.88;100774.62;2860302;82;21112;-65
2021/04/25 18:14:10;;;;;;;4.55;1.80;;;;;;;8.83;52.91;100779.13;2859847;83;21545;-65
2021/04/25 18:18:15;;;;;;;2.50;1.70;;;;;;;8.61;53.69;100787.67;2779732;84;21159;-64
2021/04/25 18:22:20;;;;;;;2.35;1.67;;;;;;;8.34;53.79;100797.29;2809425;84;21558;-64
2021/04/25 18:26:23;;;;;;;7.15;3.33;;;;;;;8.13;54.22;100796.39;2819315;84;21522;-65
2021/04/25 18:30:27;;;;;;;6.03;3.52;;;;;;;8.05;54.23;100801.30;2819096;84;21145;-65
2021/04/25 18:34:31;;;;;;;9.28;5.00;;;;;;;8.00;54.18;100809.56;2818844;83;21124;-65
2021/04/25 18:38:34;;;;;;;53.17;32.35;;;;;;;7.96;54.45;100810.72;2830799;84;21184;-65
2021/04/25 18:42:39;;;;;;;58.73;36.70;;;;;;;7.93;54.81;100814.85;2833411;84;21169;-65
2021/04/25 18:46:42;;;;;;;61.73;41.77;;;;;;;7.92;55.18;100820.27;2833259;84;21132;-64
2021/04/25 18:50:48;;;;;;;31.87;22.07;;;;;;;7.94;55.53;100819.20;2833393;83;21634;-65
2021/04/25 18:54:51;;;;;;;13.75;8.75;;;;;;;7.98;56.75;100827.82;2823612;83;21173;-65
2021/04/25 18:58:55;;;;;;;5.20;3.75;;;;;;;7.91;58.17;100829.16;2820656;84;21244;-64
2021/04/25 19:03:00;;;;;;;5.20;2.75;;;;;;;7.76;58.23;100819.02;2820461;84;21651;-64
2021/04/25 19:07:05;;;;;;;7.30;3.77;;;;;;;7.66;59.10;100824.89;2815732;84;21124;-65